createdAt,value
2019-05-25T00:00:24.157Z,16.70
2019-05-25T00:02:54.250Z,16.70
2019-05-25T00:05:23.587Z,16.60
2019-05-25T00:07:53.021Z,16.60
2019-05-25T00:10:23.310Z,16.50
2019-05-25T00:12:52.668Z,16.40
2019-05-25T00:15:22.357Z,16.40
2019-05-25T00:17:51.782Z,16.40
2019-05-25T00:20:21.168Z,16.30
2019-05-25T00:22:50.534Z,16.30
2019-05-25T00:25:19.996Z,16.20
2019-05-25T00:27:49.363Z,16.20
2019-05-25T00:30:18.815Z,16.20
2019-05-25T00:32:48.202Z,16.10
2019-05-25T00:35:17.589Z,16.10
2019-05-25T00:37:46.919Z,16.00
2019-05-25T00:40:17.125Z,16.00
2019-05-25T00:42:46.511Z,16.00
2019-05-25T00:45:16.241Z,15.90
2019-05-25T00:47:46.527Z,15.90
2019-05-25T00:50:16.706Z,15.80
2019-05-25T00:52:46.089Z,15.80
2019-05-25T00:55:15.535Z,15.80
2019-05-25T00:57:44.929Z,15.80
2019-05-25T01:00:15.263Z,15.70
2019-05-25T01:02:44.838Z,15.70
2019-05-25T01:05:15.121Z,15.60
2019-05-25T01:07:44.485Z,15.60
2019-05-25T01:10:15.443Z,15.60
2019-05-25T01:12:45.599Z,15.50
2019-05-25T01:15:16.080Z,15.50
2019-05-25T01:17:45.511Z,15.50
2019-05-25T01:20:16.857Z,15.40
2019-05-25T01:22:46.470Z,15.40
2019-05-25T01:25:16.887Z,15.40
2019-05-25T01:27:46.239Z,15.30
2019-05-25T01:30:16.618Z,15.30
2019-05-25T01:32:46.077Z,15.20
2019-05-25T01:35:15.441Z,15.20
2019-05-25T01:37:48.332Z,15.20
2019-05-25T01:40:16.739Z,15.10
2019-05-25T01:42:46.147Z,15.10
2019-05-25T01:45:15.760Z,15.00
2019-05-25T01:47:45.504Z,15.00
2019-05-25T01:50:15.217Z,15.00
2019-05-25T01:52:44.581Z,14.90
2019-05-25T02:14:28.553Z,11.90
2019-05-25T02:16:58.014Z,12.10
2019-05-25T02:19:27.393Z,12.40
2019-05-25T02:21:56.803Z,12.60
2019-05-25T02:24:26.161Z,12.80
2019-05-25T02:26:55.527Z,13.00
2019-05-25T02:29:24.903Z,13.10
2019-05-25T02:31:54.254Z,13.20
2019-05-25T02:34:23.618Z,13.20
2019-05-25T02:36:53.031Z,13.30
2019-05-25T02:39:22.398Z,13.30
2019-05-25T02:41:51.768Z,13.40
2019-05-25T02:44:21.171Z,13.40
2019-05-25T02:46:50.523Z,13.40
2019-05-25T02:49:19.889Z,13.40
2019-05-25T02:51:49.270Z,13.40
2019-05-25T02:54:19.300Z,13.40
2019-05-25T02:56:48.673Z,13.40
2019-05-25T02:59:37.422Z,13.40
2019-05-25T03:02:06.802Z,13.40
2019-05-25T03:04:36.227Z,13.40
2019-05-25T03:07:05.630Z,13.40
2019-05-25T03:09:36.782Z,13.40
2019-05-25T03:12:06.165Z,13.30
2019-05-25T03:14:35.616Z,13.30
2019-05-25T03:17:06.272Z,13.30
2019-05-25T03:19:35.636Z,13.20
2019-05-25T03:22:05.461Z,13.20
2019-05-25T03:24:34.868Z,13.20
2019-05-25T03:27:04.238Z,13.10
2019-05-25T03:29:33.656Z,13.10
2019-05-25T03:32:03.038Z,13.10
2019-05-25T03:34:32.402Z,13.10
2019-05-25T03:37:01.772Z,13.00
2019-05-25T03:39:31.128Z,13.00
2019-05-25T03:42:00.503Z,13.00
2019-05-25T03:44:30.365Z,12.90
2019-05-25T03:46:59.731Z,12.90
2019-05-25T03:49:29.110Z,12.90
2019-05-25T03:51:58.496Z,12.90
2019-05-25T03:54:27.899Z,12.80
2019-05-25T03:56:57.295Z,12.80
2019-05-25T03:59:27.232Z,12.80
2019-05-25T04:01:56.619Z,12.80
2019-05-25T04:04:25.985Z,12.70
2019-05-25T04:06:55.479Z,12.70
2019-05-25T04:09:24.829Z,12.70
2019-05-25T04:11:54.183Z,12.70
2019-05-25T04:14:26.239Z,12.70
2019-05-25T04:16:55.652Z,12.60
2019-05-25T04:19:24.970Z,12.60
2019-05-25T04:21:54.350Z,12.60
2019-05-25T04:24:23.709Z,12.60
2019-05-25T04:26:53.073Z,12.60
2019-05-25T04:29:22.540Z,12.60
2019-05-25T04:31:51.908Z,12.60
2019-05-25T04:34:21.267Z,12.60
2019-05-25T04:36:50.671Z,12.70
2019-05-25T04:39:20.035Z,12.70
2019-05-25T04:41:49.420Z,12.70
2019-05-25T04:44:18.804Z,12.80
2019-05-25T04:46:48.170Z,12.80
2019-05-25T04:49:17.550Z,12.90
2019-05-25T04:51:46.955Z,12.90
2019-05-25T04:54:16.318Z,13.00
2019-05-25T04:56:45.693Z,13.10
2019-05-25T04:59:15.088Z,13.20
2019-05-25T05:01:44.464Z,13.20
2019-05-25T05:04:13.881Z,13.30
2019-05-25T05:06:43.292Z,13.30
2019-05-25T05:09:12.657Z,13.30
2019-05-25T05:11:42.013Z,13.40
2019-05-25T05:14:11.416Z,13.40
2019-05-25T05:16:40.791Z,13.50
2019-05-25T05:19:10.163Z,13.50
2019-05-25T05:21:39.545Z,13.50
2019-05-25T05:24:08.907Z,13.60
2019-05-25T05:26:52.807Z,13.60
2019-05-25T05:29:09.374Z,13.60
2019-05-25T05:31:38.751Z,13.70
2019-05-25T05:34:08.174Z,13.70
2019-05-25T05:36:38.466Z,13.80
2019-05-25T05:39:09.555Z,13.80
2019-05-25T05:41:40.820Z,13.90
2019-05-25T05:44:11.246Z,13.90
2019-05-25T05:46:43.825Z,14.00
2019-05-25T05:49:14.424Z,14.00
2019-05-25T05:51:48.827Z,14.10
2019-05-25T05:54:20.617Z,14.20
2019-05-25T05:56:50.554Z,14.30
2019-05-25T05:59:19.964Z,14.30
2019-05-25T06:01:49.371Z,14.40
2019-05-25T06:04:18.730Z,14.50
2019-05-25T06:06:48.091Z,14.60
2019-05-25T06:09:17.446Z,14.70
2019-05-25T06:11:46.815Z,14.70
2019-05-25T06:14:16.654Z,14.80
2019-05-25T06:16:46.015Z,14.90
2019-05-25T06:19:15.397Z,15.00
2019-05-25T06:21:44.872Z,15.10
2019-05-25T06:24:15.443Z,15.20
2019-05-25T06:26:44.821Z,15.30
2019-05-25T06:29:14.211Z,15.40
2019-05-25T06:31:43.623Z,15.50
2019-05-25T06:34:12.989Z,15.70
2019-05-25T06:36:42.390Z,15.80
2019-05-25T06:39:11.759Z,15.90
2019-05-25T06:41:41.119Z,16.00
2019-05-25T06:44:10.588Z,16.20
2019-05-25T06:46:39.980Z,16.30
2019-05-25T06:49:09.340Z,16.50
2019-05-25T06:51:40.275Z,16.60
2019-05-25T06:54:09.675Z,16.70
2019-05-25T06:56:39.098Z,16.80
2019-05-25T06:59:08.470Z,16.80
2019-05-25T07:01:37.930Z,16.90
2019-05-25T07:04:07.310Z,17.00
2019-05-25T07:06:36.738Z,17.00
2019-05-25T07:09:09.227Z,17.10
2019-05-25T07:11:38.613Z,17.10
2019-05-25T07:14:08.081Z,17.20
2019-05-25T07:16:37.470Z,17.30
2019-05-25T07:19:06.844Z,17.40
2019-05-25T07:21:36.242Z,17.50
2019-05-25T07:24:05.868Z,17.60
2019-05-25T07:26:35.569Z,17.70
2019-05-25T07:29:05.011Z,17.80
2019-05-25T07:31:34.371Z,17.90
2019-05-25T07:34:03.791Z,18.10
2019-05-25T07:36:33.204Z,18.20
2019-05-25T07:39:02.588Z,18.40
2019-05-25T07:41:31.998Z,18.50
2019-05-25T07:44:01.455Z,18.70
2019-05-25T07:46:30.807Z,18.80
2019-05-25T07:49:00.200Z,18.90
2019-05-25T07:51:29.753Z,19.00
2019-05-25T07:53:59.119Z,19.10
2019-05-25T07:56:28.474Z,19.20
2019-05-25T07:58:57.867Z,19.30
2019-05-25T08:01:29.794Z,19.30
2019-05-25T08:03:59.152Z,19.40
2019-05-25T08:06:28.895Z,19.40
2019-05-25T08:08:58.259Z,19.50
2019-05-25T08:11:27.638Z,19.50
2019-05-25T08:13:57.019Z,19.60
2019-05-25T08:16:26.401Z,19.70
2019-05-25T08:18:55.779Z,19.80
2019-05-25T08:21:25.166Z,19.90
2019-05-25T08:23:54.520Z,20.00
2019-05-25T08:26:23.890Z,20.10
2019-05-25T08:28:55.035Z,20.20
2019-05-25T08:31:24.401Z,20.30
2019-05-25T08:33:53.762Z,20.30
2019-05-25T08:36:23.173Z,20.40
2019-05-25T08:38:54.755Z,20.40
2019-05-25T08:41:23.640Z,20.40
2019-05-25T08:43:53.048Z,20.50
2019-05-25T08:46:22.421Z,20.60
2019-05-25T08:48:51.796Z,20.70
2019-05-25T08:51:21.203Z,20.80
2019-05-25T08:53:50.564Z,20.80
2019-05-25T08:56:19.937Z,20.90
2019-05-25T08:58:49.317Z,20.90
2019-05-25T09:01:18.685Z,21.00
2019-05-25T09:03:48.052Z,21.00
2019-05-25T09:06:17.466Z,21.10
2019-05-25T09:08:46.821Z,21.20
2019-05-25T09:11:16.199Z,21.20
2019-05-25T09:13:45.629Z,21.30
2019-05-25T09:16:14.987Z,21.30
2019-05-25T09:18:44.366Z,21.30
2019-05-25T09:21:13.772Z,21.40
2019-05-25T09:23:43.122Z,21.50
2019-05-25T09:26:13.528Z,21.60
2019-05-25T09:28:43.028Z,21.70
2019-05-25T09:31:12.808Z,21.90
2019-05-25T09:33:42.171Z,22.00
2019-05-25T09:36:12.053Z,22.10
2019-05-25T09:38:43.430Z,22.20
2019-05-25T09:41:12.526Z,22.20
2019-05-25T09:43:41.968Z,22.30
2019-05-25T09:46:11.373Z,22.30
2019-05-25T09:48:40.725Z,22.40
2019-05-25T09:51:15.575Z,22.60
2019-05-25T09:53:41.276Z,22.70
2019-05-25T09:56:10.621Z,22.70
2019-05-25T09:58:40.042Z,22.70
2019-05-25T10:01:09.471Z,22.80
2019-05-25T10:03:38.826Z,22.90
2019-05-25T10:06:12.148Z,22.90
2019-05-25T10:08:39.409Z,22.90
2019-05-25T10:11:08.782Z,23.00
2019-05-25T10:13:38.194Z,23.00
2019-05-25T10:16:07.654Z,23.10
2019-05-25T10:18:36.975Z,23.20
2019-05-25T10:21:06.877Z,23.30
2019-05-25T10:23:36.501Z,23.40
2019-05-25T10:26:06.005Z,23.40
2019-05-25T10:28:35.382Z,23.50
2019-05-25T10:31:04.749Z,23.60
2019-05-25T10:33:34.932Z,23.70
2019-05-25T10:36:04.408Z,23.80
2019-05-25T10:38:33.767Z,23.80
2019-05-25T10:41:03.169Z,23.90
2019-05-25T10:43:32.633Z,23.90
2019-05-25T10:46:03.631Z,24.00
2019-05-25T10:48:32.990Z,24.00
2019-05-25T10:51:02.405Z,24.10
2019-05-25T10:53:31.755Z,24.20
2019-05-25T10:56:01.114Z,24.30
2019-05-25T10:58:31.962Z,24.40
2019-05-25T11:01:01.235Z,24.40
2019-05-25T11:03:30.591Z,24.50
2019-05-25T11:06:00.032Z,24.60
2019-05-25T11:08:29.374Z,24.70
2019-05-25T11:10:58.746Z,24.70
2019-05-25T11:13:28.147Z,24.70
2019-05-25T11:15:57.514Z,24.70
2019-05-25T11:18:26.883Z,24.80
2019-05-25T11:20:56.257Z,24.90
2019-05-25T11:23:25.609Z,24.90
2019-05-25T11:25:54.994Z,25.00
2019-05-25T11:28:24.979Z,25.00
2019-05-25T11:30:54.343Z,25.10
2019-05-25T11:33:23.705Z,25.10
2019-05-25T11:35:53.914Z,25.20
2019-05-25T11:38:23.296Z,25.20
2019-05-25T11:40:52.665Z,25.30
2019-05-25T11:43:22.080Z,25.30
2019-05-25T11:45:51.473Z,25.40
2019-05-25T11:48:20.827Z,25.40
2019-05-25T11:50:50.259Z,25.40
2019-05-25T11:53:19.699Z,25.40
2019-05-25T11:55:49.056Z,25.40
2019-05-25T11:58:18.430Z,25.50
2019-05-25T12:00:47.864Z,25.60
2019-05-25T12:03:17.236Z,25.60
2019-05-25T12:05:46.619Z,25.60
2019-05-25T12:08:16.046Z,25.60
2019-05-25T12:10:45.426Z,25.70
2019-05-25T12:13:14.886Z,25.70
2019-05-25T12:15:44.298Z,25.80
2019-05-25T12:18:13.688Z,25.80
2019-05-25T12:20:43.079Z,25.80
2019-05-25T12:23:12.806Z,25.90
2019-05-25T12:25:42.514Z,25.90
2019-05-25T12:28:11.892Z,26.00
2019-05-25T12:30:41.618Z,26.00
2019-05-25T12:33:11.022Z,26.00
2019-05-25T12:35:44.963Z,26.10
2019-05-25T12:38:12.645Z,26.10
2019-05-25T12:40:53.195Z,26.20
2019-05-25T12:43:14.164Z,26.20
2019-05-25T12:45:43.516Z,26.30
2019-05-25T12:48:12.879Z,26.30
2019-05-25T12:50:42.704Z,26.30
2019-05-25T12:53:12.076Z,26.30
2019-05-25T12:55:41.446Z,26.30
2019-05-25T12:58:10.866Z,26.40
2019-05-25T13:00:53.454Z,26.40
2019-05-25T13:03:11.342Z,26.50
2019-05-25T13:05:40.738Z,26.50
2019-05-25T13:08:10.105Z,26.60
2019-05-25T13:10:39.479Z,26.70
2019-05-25T13:13:10.008Z,26.80
2019-05-25T13:15:40.023Z,26.80
2019-05-25T13:18:12.105Z,26.90
2019-05-25T13:20:41.510Z,26.90
2019-05-25T13:23:10.863Z,26.90
2019-05-25T13:25:40.228Z,26.90
2019-05-25T13:28:09.629Z,26.90
2019-05-25T13:30:40.524Z,26.90
2019-05-25T13:33:09.907Z,27.00
2019-05-25T13:35:39.391Z,27.00
2019-05-25T13:38:08.777Z,27.00
2019-05-25T13:40:38.496Z,27.00
2019-05-25T13:43:10.600Z,27.00
2019-05-25T13:45:40.662Z,27.10
2019-05-25T13:48:10.039Z,27.10
2019-05-25T13:50:39.442Z,27.20
2019-05-25T13:53:08.790Z,27.30
2019-05-25T13:55:38.191Z,27.30
2019-05-25T13:58:09.242Z,27.40
2019-05-25T14:00:38.606Z,27.40
2019-05-25T14:03:07.958Z,27.50
2019-05-25T14:05:37.341Z,27.50
2019-05-25T14:08:08.351Z,27.50
2019-05-25T14:10:37.715Z,27.60
2019-05-25T14:13:07.090Z,27.60
2019-05-25T14:15:36.486Z,27.50
2019-05-25T14:18:05.966Z,27.50
2019-05-25T14:20:35.352Z,27.60
2019-05-25T14:23:05.280Z,27.50
2019-05-25T14:25:34.642Z,27.50
2019-05-25T14:28:04.085Z,27.50
2019-05-25T14:30:33.463Z,27.40
2019-05-25T14:33:03.075Z,27.40
2019-05-25T14:35:32.473Z,27.40
2019-05-25T14:38:01.830Z,27.40
2019-05-25T14:40:31.187Z,27.40
2019-05-25T14:43:01.465Z,27.40
2019-05-25T14:45:30.873Z,27.30
2019-05-25T14:48:00.254Z,27.30
2019-05-25T14:50:29.634Z,27.20
2019-05-25T14:52:58.993Z,27.20
2019-05-25T14:55:28.365Z,27.10
2019-05-25T14:57:57.764Z,27.10
2019-05-25T15:00:27.135Z,27.10
2019-05-25T15:02:56.495Z,27.20
2019-05-25T15:05:25.896Z,27.20
2019-05-25T15:07:55.268Z,27.20
2019-05-25T15:10:24.639Z,27.20
2019-05-25T15:12:54.026Z,27.20
2019-05-25T15:15:23.417Z,27.20
2019-05-25T15:17:52.778Z,27.20
2019-05-25T15:20:22.263Z,27.10
2019-05-25T15:22:51.633Z,27.10
2019-05-25T15:25:21.076Z,27.00
2019-05-25T15:27:50.897Z,27.00
2019-05-25T15:30:20.983Z,27.00
2019-05-25T15:32:50.359Z,26.90
2019-05-25T15:35:20.617Z,26.90
2019-05-25T15:37:50.115Z,26.80
2019-05-25T15:40:19.798Z,26.80
2019-05-25T15:42:49.214Z,26.70
2019-05-25T15:45:20.147Z,26.70
2019-05-25T15:47:49.571Z,26.60
2019-05-25T15:50:19.648Z,26.60
2019-05-25T15:52:52.131Z,26.60
2019-05-25T15:55:21.573Z,26.60
2019-05-25T15:57:51.332Z,26.70
2019-05-25T16:00:24.033Z,26.70
2019-05-25T16:02:53.396Z,26.70
2019-05-25T16:05:22.887Z,26.80
2019-05-25T16:07:53.683Z,26.80
2019-05-25T16:10:23.044Z,26.70
2019-05-25T16:12:52.428Z,26.70
2019-05-25T16:15:28.736Z,26.70
2019-05-25T16:17:58.125Z,26.60
2019-05-25T16:20:27.479Z,26.50
2019-05-25T16:22:56.832Z,26.40
2019-05-25T16:25:26.296Z,26.30
2019-05-25T16:27:55.653Z,26.20
2019-05-25T16:30:26.767Z,26.10
2019-05-25T16:33:13.988Z,26.00
2019-05-25T16:35:27.273Z,25.90
2019-05-25T16:37:56.831Z,25.80
2019-05-25T16:40:26.352Z,25.70
2019-05-25T16:42:55.776Z,25.60
2019-05-25T16:45:25.138Z,25.60
2019-05-25T16:47:55.153Z,25.50
2019-05-25T16:50:24.499Z,25.50
2019-05-25T16:52:54.132Z,25.50
2019-05-25T16:55:23.739Z,25.40
2019-05-25T16:57:54.709Z,25.40
2019-05-25T17:00:29.431Z,25.40
2019-05-25T17:03:00.050Z,25.40
2019-05-25T17:05:29.678Z,25.40
2019-05-25T17:07:59.067Z,25.40
2019-05-25T17:10:28.541Z,25.40
2019-05-25T17:12:57.994Z,25.40
2019-05-25T17:15:27.531Z,25.50
2019-05-25T17:17:57.000Z,25.50
2019-05-25T17:20:26.431Z,25.40
2019-05-25T17:22:55.799Z,25.30
2019-05-25T17:25:25.602Z,25.20
2019-05-25T17:27:54.960Z,25.20
2019-05-25T17:30:44.060Z,25.10
2019-05-25T17:33:13.759Z,24.90
2019-05-25T17:35:44.027Z,24.90
2019-05-25T17:38:13.607Z,24.80
2019-05-25T17:40:43.038Z,24.80
2019-05-25T17:43:12.397Z,24.70
2019-05-25T17:45:41.860Z,24.70
2019-05-25T17:48:11.219Z,24.70
2019-05-25T17:50:41.217Z,24.70
2019-05-25T17:53:13.482Z,24.70
2019-05-25T17:55:42.851Z,24.60
2019-05-25T17:58:12.207Z,24.60
2019-05-25T18:00:48.295Z,24.50
2019-05-25T18:03:17.883Z,24.50
2019-05-25T18:05:47.877Z,24.50
2019-05-25T18:08:17.327Z,24.40
2019-05-25T18:10:54.494Z,24.40
2019-05-25T18:13:20.405Z,24.40
2019-05-25T18:15:53.264Z,24.30
2019-05-25T18:18:22.774Z,24.30
2019-05-25T18:20:52.242Z,24.30
2019-05-25T18:23:21.635Z,24.20
2019-05-25T18:25:52.654Z,24.20
2019-05-25T18:28:22.021Z,24.20
2019-05-25T18:30:51.452Z,24.20
2019-05-25T18:33:20.852Z,24.20
2019-05-25T18:35:50.231Z,24.10
2019-05-25T18:38:20.517Z,24.10
2019-05-25T18:40:49.855Z,24.10
2019-05-25T18:43:19.214Z,24.00
2019-05-25T18:45:48.605Z,24.00
2019-05-25T18:48:17.975Z,23.90
2019-05-25T18:50:47.513Z,23.80
2019-05-25T18:53:17.584Z,23.70
2019-05-25T18:55:46.924Z,23.60
2019-05-25T18:58:16.440Z,23.60
2019-05-25T19:00:46.024Z,23.40
2019-05-25T19:03:34.760Z,23.30
2019-05-25T19:06:04.131Z,23.10
2019-05-25T19:08:33.528Z,23.00
2019-05-25T19:11:03.463Z,22.90
2019-05-25T19:13:36.015Z,22.70
2019-05-25T19:16:05.449Z,22.60
2019-05-25T19:18:40.308Z,22.50
2019-05-25T19:21:10.538Z,22.30
2019-05-25T19:23:41.579Z,22.20
2019-05-25T19:26:10.891Z,22.10
2019-05-25T19:28:40.941Z,21.90
2019-05-25T19:31:10.860Z,21.80
2019-05-25T19:33:40.497Z,21.70
2019-05-25T19:36:09.882Z,21.50
2019-05-25T19:38:39.229Z,21.40
2019-05-25T19:41:08.594Z,21.30
2019-05-25T19:43:38.272Z,21.20
2019-05-25T19:46:08.198Z,21.10
2019-05-25T19:48:37.596Z,21.00
2019-05-25T19:51:07.062Z,20.90
2019-05-25T19:53:36.433Z,20.80
2019-05-25T19:56:06.178Z,20.70
2019-05-25T19:58:35.600Z,20.60
2019-05-25T20:01:04.993Z,20.40
2019-05-25T20:03:34.385Z,20.30
2019-05-25T20:06:03.899Z,20.20
2019-05-25T20:08:36.251Z,20.10
2019-05-25T20:11:05.690Z,20.00
2019-05-25T20:13:35.079Z,19.80
2019-05-25T20:16:04.460Z,19.80
2019-05-25T20:18:33.827Z,19.70
2019-05-25T20:21:06.526Z,19.60
2019-05-25T20:23:35.909Z,19.40
2019-05-25T20:26:05.341Z,19.30
2019-05-25T20:28:34.720Z,19.20
2019-05-25T20:31:04.101Z,19.10
2019-05-25T20:33:35.222Z,19.00
2019-05-25T20:36:04.752Z,18.90
2019-05-25T20:38:34.138Z,18.80
2019-05-25T20:41:03.496Z,18.70
2019-05-25T20:43:36.174Z,18.60
2019-05-25T20:46:05.588Z,18.50
2019-05-25T20:48:34.947Z,18.40
2019-05-25T20:51:04.378Z,18.40
2019-05-25T20:53:33.752Z,18.30
2019-05-25T20:56:03.108Z,18.20
2019-05-25T20:58:33.384Z,18.10
2019-05-25T21:01:02.815Z,18.00
2019-05-25T21:03:32.177Z,17.90
2019-05-25T21:06:01.581Z,17.80
2019-05-25T21:08:30.959Z,17.80
2019-05-25T21:11:00.327Z,17.70
2019-05-25T21:13:29.700Z,17.60
2019-05-25T21:15:59.066Z,17.50
2019-05-25T21:18:28.458Z,17.40
2019-05-25T21:20:57.876Z,17.40
2019-05-25T21:23:27.258Z,17.30
2019-05-25T21:25:56.650Z,17.20
2019-05-25T21:28:26.453Z,17.20
2019-05-25T21:30:55.806Z,17.10
2019-05-25T21:33:25.154Z,17.00
2019-05-25T21:36:07.578Z,17.00
2019-05-25T21:38:25.692Z,16.90
2019-05-25T21:40:55.085Z,16.80
2019-05-25T21:43:24.468Z,16.80
2019-05-25T21:45:53.834Z,16.70
2019-05-25T21:48:23.233Z,16.70
2019-05-25T21:50:52.650Z,16.60
2019-05-25T21:53:22.028Z,16.50
2019-05-25T21:55:51.392Z,16.50
2019-05-25T21:58:20.754Z,16.40
2019-05-25T22:00:51.594Z,16.40
2019-05-25T22:03:21.029Z,16.30
2019-05-25T22:05:50.407Z,16.30
2019-05-25T22:08:19.782Z,16.20
2019-05-25T22:10:49.144Z,16.20
2019-05-25T22:13:27.716Z,16.10
2019-05-25T22:15:50.043Z,16.10
2019-05-25T22:18:19.391Z,16.00
2019-05-25T22:20:48.863Z,16.00
2019-05-25T22:23:18.214Z,15.90
2019-05-25T22:25:47.583Z,15.90
2019-05-25T22:28:16.945Z,15.80
2019-05-25T22:30:46.305Z,15.80
2019-05-25T22:33:15.657Z,15.80
2019-05-25T22:35:45.131Z,15.70
2019-05-25T22:38:14.496Z,15.70
2019-05-25T22:40:44.243Z,15.60
2019-05-25T22:43:13.616Z,15.60
2019-05-25T22:45:42.974Z,15.50
2019-05-25T22:48:12.486Z,15.50
2019-05-25T22:50:41.826Z,15.40
2019-05-25T22:53:11.276Z,15.40
2019-05-25T22:55:40.640Z,15.30
2019-05-25T22:58:10.152Z,15.30
2019-05-25T23:00:39.508Z,15.20
2019-05-25T23:03:09.745Z,15.20
2019-05-25T23:05:39.132Z,15.10
2019-05-25T23:08:08.513Z,15.10
2019-05-25T23:10:37.894Z,15.00
2019-05-25T23:13:07.268Z,15.00
2019-05-25T23:15:36.635Z,14.90
2019-05-25T23:18:06.032Z,14.90
2019-05-25T23:20:36.793Z,14.80
2019-05-25T23:23:06.345Z,14.80
2019-05-25T23:25:35.744Z,14.70
2019-05-25T23:28:05.131Z,14.70
2019-05-25T23:30:34.671Z,14.70
2019-05-25T23:33:04.041Z,14.60
2019-05-25T23:35:33.451Z,14.50
2019-05-25T23:38:03.801Z,14.50
2019-05-25T23:40:33.460Z,14.50
2019-05-25T23:43:02.882Z,14.40
2019-05-25T23:45:32.240Z,14.40
2019-05-25T23:48:01.700Z,14.40
2019-05-25T23:50:31.179Z,14.30
2019-05-25T23:53:19.872Z,14.30
2019-05-25T23:55:49.331Z,14.30
2019-05-25T23:58:18.705Z,14.20
